createdAt,value
2018-02-01T00:02:13.121Z,3.33
2018-02-01T00:04:40.638Z,2.10
2018-02-01T00:07:08.920Z,2.97
2018-02-01T00:09:36.445Z,3.23
2018-02-01T00:12:03.957Z,1.70
2018-02-01T00:14:31.481Z,1.40
2018-02-01T00:16:59.007Z,3.40
2018-02-01T00:19:26.548Z,2.97
2018-02-01T00:21:54.044Z,3.20
2018-02-01T00:24:21.554Z,2.63
2018-02-01T00:26:49.814Z,2.10
2018-02-01T00:29:17.315Z,2.60
2018-02-01T00:31:45.569Z,4.07
2018-02-01T00:34:13.092Z,1.03
2018-02-01T00:36:40.581Z,2.10
2018-02-01T00:39:08.108Z,1.30
2018-02-01T00:41:35.644Z,2.00
2018-02-01T00:44:03.916Z,1.93
2018-02-01T00:46:32.189Z,1.37
2018-02-01T00:49:00.037Z,2.60
2018-02-01T00:51:27.522Z,1.73
2018-02-01T00:53:55.040Z,1.13
2018-02-01T00:56:22.524Z,3.43
2018-02-01T00:58:50.055Z,0.90
2018-02-01T01:01:18.100Z,2.10
2018-02-01T01:03:46.365Z,1.13
2018-02-01T01:06:13.893Z,8.03
2018-02-01T01:08:41.410Z,1.00
2018-02-01T01:11:08.908Z,1.17
2018-02-01T01:13:36.417Z,1.03
2018-02-01T01:16:03.905Z,1.73
2018-02-01T01:18:32.247Z,2.57
2018-02-01T01:20:59.737Z,2.00
2018-02-01T01:23:27.289Z,4.53
2018-02-01T01:25:54.783Z,2.50
2018-02-01T01:28:22.382Z,3.47
2018-02-01T01:30:49.946Z,2.70
2018-02-01T01:33:17.461Z,1.43
2018-02-01T01:35:45.737Z,1.43
2018-02-01T01:38:14.009Z,0.83
2018-02-01T01:40:41.495Z,3.60
2018-02-01T01:43:09.744Z,5.83
2018-02-01T01:45:37.404Z,1.47
2018-02-01T01:48:04.899Z,20.17
2018-02-01T01:50:33.169Z,1.10
2018-02-01T01:53:00.653Z,2.00
2018-02-01T01:55:28.927Z,3.00
2018-02-01T01:57:57.185Z,1.90
2018-02-01T02:00:24.724Z,2.80
2018-02-01T02:02:52.239Z,1.00
2018-02-01T02:05:20.537Z,3.90
2018-02-01T02:07:48.027Z,2.63
2018-02-01T02:10:15.511Z,1.27
2018-02-01T02:12:43.010Z,2.20
2018-02-01T02:15:11.282Z,2.20
2018-02-01T02:17:39.542Z,4.73
2018-02-01T02:20:07.157Z,0.60
2018-02-01T02:22:36.110Z,1.30
2018-02-01T02:25:03.669Z,2.00
2018-02-01T02:27:31.154Z,1.97
2018-02-01T02:29:59.427Z,0.93
2018-02-01T02:32:27.708Z,1.10
2018-02-01T02:34:55.979Z,0.83
2018-02-01T02:37:23.474Z,0.70
2018-02-01T02:39:50.981Z,3.57
2018-02-01T02:42:18.462Z,3.43
2018-02-01T02:44:45.973Z,2.53
2018-02-01T02:47:13.454Z,3.40
2018-02-01T02:49:40.967Z,3.30
2018-02-01T02:52:09.286Z,2.60
2018-02-01T02:54:36.815Z,1.07
2018-02-01T02:57:05.085Z,2.83
2018-02-01T02:59:33.359Z,2.00
2018-02-01T03:02:00.922Z,1.23
2018-02-01T03:04:28.417Z,1.20
2018-02-01T03:06:55.944Z,3.63
2018-02-01T03:09:25.024Z,2.60
2018-02-01T03:11:52.526Z,1.50
2018-02-01T03:14:20.779Z,1.77
2018-02-01T03:16:49.254Z,1.40
2018-02-01T03:19:16.761Z,4.03
2018-02-01T03:21:45.371Z,3.60
2018-02-01T03:24:12.854Z,1.13
2018-02-01T03:26:40.372Z,2.70
2018-02-01T03:29:08.686Z,1.83
2018-02-01T03:31:36.190Z,2.20
2018-02-01T03:34:03.707Z,2.53
2018-02-01T03:36:31.213Z,2.50
2018-02-01T03:38:58.972Z,3.93
2018-02-01T03:41:26.488Z,2.27
2018-02-01T03:43:54.753Z,3.33
2018-02-01T03:46:23.847Z,2.80
2018-02-01T03:48:52.117Z,1.53
2018-02-01T03:51:19.600Z,1.90
2018-02-01T03:53:47.848Z,3.23
2018-02-01T03:56:15.349Z,6.13
2018-02-01T03:58:43.639Z,3.30
2018-02-01T04:01:11.878Z,3.20
2018-02-01T04:03:40.889Z,1.40
2018-02-01T04:06:08.375Z,6.20
2018-02-01T04:08:36.629Z,2.40
2018-02-01T04:11:04.139Z,4.00
2018-02-01T04:13:31.629Z,5.40
2018-02-01T04:15:59.669Z,3.50
2018-02-01T04:18:27.154Z,2.00
2018-02-01T04:20:54.657Z,3.03
2018-02-01T04:23:22.145Z,2.70
2018-02-01T04:25:50.420Z,3.77
2018-02-01T04:28:18.660Z,5.50
2018-02-01T04:30:46.197Z,2.37
2018-02-01T04:33:13.681Z,2.80
2018-02-01T04:35:41.171Z,2.10
2018-02-01T04:38:08.691Z,3.53
2018-02-01T04:40:36.193Z,3.53
2018-02-01T04:43:03.748Z,4.80
2018-02-01T04:45:32.408Z,5.07
2018-02-01T04:47:59.908Z,4.00
2018-02-01T04:50:27.393Z,7.20
2018-02-01T04:52:55.670Z,2.93
2018-02-01T04:55:23.920Z,4.23
2018-02-01T04:57:51.414Z,4.20
2018-02-01T05:00:19.674Z,4.80
2018-02-01T05:02:47.195Z,4.50
2018-02-01T05:05:14.685Z,4.97
2018-02-01T05:07:42.214Z,5.47
2018-02-01T05:10:09.876Z,5.33
2018-02-01T05:12:37.368Z,8.33
2018-02-01T05:15:04.853Z,5.87
2018-02-01T05:17:32.357Z,8.03
2018-02-01T05:19:59.860Z,19.10
2018-02-01T05:22:27.354Z,6.53
2018-02-01T05:24:55.604Z,7.40
2018-02-01T05:27:23.151Z,4.60
2018-02-01T05:29:50.670Z,3.10
2018-02-01T05:32:18.963Z,5.40
2018-02-01T05:34:47.220Z,3.30
2018-02-01T05:37:15.541Z,3.13
2018-02-01T05:39:43.029Z,2.37
2018-02-01T05:42:10.553Z,2.90
2018-02-01T05:44:38.808Z,2.37
2018-02-01T05:47:07.085Z,1.92
2018-02-01T05:49:34.599Z,2.25
2018-02-01T05:52:02.090Z,5.60
2018-02-01T05:54:29.841Z,4.43
2018-02-01T05:56:57.341Z,7.00
2018-02-01T05:59:25.624Z,2.37
2018-02-01T06:01:53.461Z,3.87
2018-02-01T06:04:20.963Z,4.10
2018-02-01T06:06:48.441Z,7.00
2018-02-01T06:09:16.709Z,12.60
2018-02-01T06:11:44.969Z,5.30
2018-02-01T06:14:12.476Z,9.43
2018-02-01T06:16:39.963Z,3.73
2018-02-01T06:19:07.473Z,9.93
2018-02-01T06:21:35.737Z,3.13
2018-02-01T06:24:03.224Z,3.90
2018-02-01T06:26:31.493Z,4.57
2018-02-01T06:28:59.007Z,5.82
2018-02-01T06:31:26.518Z,6.93
2018-02-01T06:33:54.034Z,4.83
2018-02-01T06:36:21.549Z,4.82
2018-02-01T06:38:49.862Z,3.53
2018-02-01T06:41:17.370Z,8.03
2018-02-01T06:43:45.017Z,8.73
2018-02-01T06:46:12.564Z,9.10
2018-02-01T06:48:40.133Z,8.33
2018-02-01T06:51:07.652Z,12.25
2018-02-01T06:53:35.167Z,8.27
2018-02-01T06:56:02.824Z,10.85
2018-02-01T06:58:30.331Z,4.55
2018-02-01T07:01:01.405Z,8.23
2018-02-01T07:03:28.965Z,5.82
2018-02-01T07:05:57.287Z,12.60
2018-02-01T07:08:24.795Z,11.73
2018-02-01T07:10:53.078Z,4.95
2018-02-01T07:13:21.411Z,3.17
2018-02-01T07:15:48.954Z,8.63
2018-02-01T07:18:16.481Z,4.57
2018-02-01T07:20:44.026Z,4.10
2018-02-01T07:23:11.531Z,7.55
2018-02-01T07:25:39.807Z,5.55
2018-02-01T07:28:08.082Z,10.60
2018-02-01T07:30:36.381Z,12.70
2018-02-01T07:33:04.008Z,7.70
2018-02-01T07:35:32.287Z,8.57
2018-02-01T07:37:59.845Z,5.20
2018-02-01T07:40:28.211Z,5.80
2018-02-01T07:42:55.752Z,13.30
2018-02-01T07:45:23.307Z,4.82
2018-02-01T07:47:52.280Z,26.12
2018-02-01T07:50:20.587Z,8.13
2018-02-01T07:52:48.101Z,6.20
2018-02-01T07:55:15.784Z,11.88
2018-02-01T07:57:44.085Z,11.32
2018-02-01T08:00:12.368Z,4.55
2018-02-01T08:02:39.871Z,12.03
2018-02-01T08:05:07.494Z,5.90
2018-02-01T08:07:35.825Z,6.57
2018-02-01T08:10:03.346Z,4.57
2018-02-01T08:12:30.869Z,6.68
2018-02-01T08:14:58.387Z,4.70
2018-02-01T08:17:25.894Z,4.13
2018-02-01T08:19:53.433Z,5.80
2018-02-01T08:22:21.022Z,12.57
2018-02-01T08:24:48.575Z,10.83
2018-02-01T08:27:16.130Z,5.72
2018-02-01T08:29:43.617Z,9.53
2018-02-01T08:32:11.855Z,5.72
2018-02-01T08:34:39.353Z,4.87
2018-02-01T08:37:06.880Z,5.50
2018-02-01T08:39:34.388Z,5.60
2018-02-01T08:42:01.918Z,5.90
2018-02-01T08:44:29.432Z,7.22
2018-02-01T08:46:56.917Z,7.27
2018-02-01T08:49:24.487Z,6.43
2018-02-01T08:51:52.010Z,4.07
2018-02-01T08:54:19.493Z,9.43
2018-02-01T08:56:47.822Z,8.95
2018-02-01T08:59:15.338Z,13.95
2018-02-01T09:01:43.600Z,6.70
2018-02-01T09:04:11.113Z,12.40
2018-02-01T09:06:39.003Z,13.95
2018-02-01T09:09:06.533Z,9.55
2018-02-01T09:11:34.144Z,9.20
2018-02-01T09:14:01.613Z,5.18
2018-02-01T09:16:29.206Z,7.15
2018-02-01T09:18:57.693Z,10.90
2018-02-01T09:21:29.221Z,9.10
2018-02-01T09:23:56.749Z,20.53
2018-02-01T09:26:24.279Z,4.37
2018-02-01T09:28:52.557Z,5.93
2018-02-01T09:31:20.850Z,8.13
2018-02-01T09:33:48.383Z,7.00
2018-02-01T09:36:15.964Z,5.37
2018-02-01T09:38:44.240Z,7.00
2018-02-01T09:41:12.529Z,10.03
2018-02-01T09:43:40.826Z,5.82
2018-02-01T09:46:08.462Z,6.90
2018-02-01T09:48:35.987Z,7.70
2018-02-01T09:51:03.665Z,20.00
2018-02-01T09:53:31.246Z,9.23
2018-02-01T09:55:58.708Z,6.73
2018-02-01T09:58:26.259Z,16.20
2018-02-01T10:00:53.759Z,9.00
2018-02-01T10:03:22.042Z,12.00
2018-02-01T10:05:49.558Z,14.63
2018-02-01T10:08:17.117Z,10.07
2018-02-01T10:10:44.665Z,12.43
2018-02-01T10:13:12.251Z,2.80
2018-02-01T10:15:39.790Z,10.00
2018-02-01T10:18:07.343Z,6.33
2018-02-01T10:20:34.875Z,8.97
2018-02-01T10:23:02.391Z,9.00
2018-02-01T10:25:29.913Z,7.67
2018-02-01T10:27:58.212Z,7.40
2018-02-01T10:30:26.520Z,7.23
2018-02-01T10:32:54.650Z,8.93
2018-02-01T10:35:22.938Z,4.27
2018-02-01T10:37:50.454Z,5.87
2018-02-01T10:40:17.953Z,7.00
2018-02-01T10:42:45.463Z,7.57
2018-02-01T10:45:12.997Z,4.50
2018-02-01T10:47:41.303Z,9.90
2018-02-01T10:50:08.882Z,3.40
2018-02-01T10:52:36.402Z,7.20
2018-02-01T10:55:04.724Z,18.33
2018-02-01T10:57:32.272Z,10.90
2018-02-01T10:59:59.831Z,5.03
2018-02-01T11:02:28.145Z,11.83
2018-02-01T11:04:55.680Z,7.67
2018-02-01T11:07:23.688Z,5.37
2018-02-01T11:09:51.240Z,3.20
2018-02-01T11:12:18.780Z,3.40
2018-02-01T11:14:46.362Z,6.90
2018-02-01T11:17:13.932Z,10.03
2018-02-01T11:19:41.807Z,9.70
2018-02-01T11:22:09.410Z,4.10
2018-02-01T11:24:37.922Z,11.67
2018-02-01T11:27:06.254Z,5.77
2018-02-01T11:29:33.799Z,4.40
2018-02-01T11:32:01.354Z,13.93
2018-02-01T11:34:28.880Z,5.60
2018-02-01T11:36:57.213Z,7.13
2018-02-01T11:39:24.744Z,5.60
2018-02-01T11:41:53.026Z,5.37
2018-02-01T11:44:21.321Z,3.43
2018-02-01T11:46:48.898Z,8.47
2018-02-01T11:49:16.423Z,5.00
2018-02-01T11:51:44.738Z,5.00
2018-02-01T11:54:12.281Z,8.10
2018-02-01T11:56:40.572Z,5.83
2018-02-01T11:59:08.166Z,2.63
2018-02-01T12:01:35.684Z,18.33
2018-02-01T12:04:04.012Z,10.17
2018-02-01T12:06:31.556Z,2.10
2018-02-01T12:08:59.119Z,2.80
2018-02-01T12:11:27.402Z,7.50
2018-02-01T12:13:54.950Z,5.10
2018-02-01T12:16:23.259Z,5.27
2018-02-01T12:18:50.835Z,7.27
2018-02-01T12:21:18.393Z,6.33
2018-02-01T12:23:45.935Z,3.37
2018-02-01T12:26:13.428Z,8.73
2018-02-01T12:28:40.958Z,6.93
2018-02-01T12:31:08.452Z,4.40
2018-02-01T12:33:35.978Z,15.03
2018-02-01T12:36:04.248Z,5.43
2018-02-01T12:38:32.524Z,8.20
2018-02-01T12:41:00.794Z,8.60
2018-02-01T12:43:29.139Z,6.37
2018-02-01T12:45:56.688Z,4.03
2018-02-01T12:48:24.200Z,5.33
2018-02-01T12:50:51.749Z,5.50
2018-02-01T12:53:19.257Z,3.37
2018-02-01T12:55:47.533Z,3.00
2018-02-01T12:58:15.789Z,6.30
2018-02-01T13:00:44.068Z,6.40
2018-02-01T13:03:12.348Z,7.13
2018-02-01T13:05:40.645Z,5.53
2018-02-01T13:08:08.921Z,3.80
2018-02-01T13:10:37.235Z,7.10
2018-02-01T13:13:04.725Z,5.50
2018-02-01T13:15:32.229Z,8.10
2018-02-01T13:18:00.499Z,7.10
2018-02-01T13:20:28.086Z,11.53
2018-02-01T13:22:56.362Z,6.53
2018-02-01T13:25:24.657Z,8.50
2018-02-01T13:27:52.693Z,6.87
2018-02-01T13:30:21.011Z,3.67
2018-02-01T13:32:49.311Z,5.40
2018-02-01T13:35:16.822Z,13.33
2018-02-01T13:37:44.320Z,8.80
2018-02-01T13:40:11.849Z,4.23
2018-02-01T13:42:39.371Z,2.60
2018-02-01T13:45:06.890Z,6.00
2018-02-01T13:47:35.154Z,10.53
2018-02-01T13:50:02.656Z,7.23
2018-02-01T13:52:30.971Z,5.13
2018-02-01T13:54:58.492Z,9.60
2018-02-01T13:57:26.778Z,11.23
2018-02-01T13:59:55.080Z,7.40
2018-02-01T14:02:22.586Z,3.13
2018-02-01T14:04:50.118Z,3.90
2018-02-01T14:07:17.654Z,6.93
2018-02-01T14:09:45.193Z,5.00
2018-02-01T14:12:13.485Z,4.23
2018-02-01T14:14:41.767Z,4.17
2018-02-01T14:17:10.148Z,9.07
2018-02-01T14:19:38.501Z,9.83
2018-02-01T14:22:06.816Z,5.27
2018-02-01T14:24:35.087Z,12.17
2018-02-01T14:27:03.378Z,10.63
2018-02-01T14:29:31.705Z,5.17
2018-02-01T14:32:00.015Z,9.80
2018-02-01T14:34:27.538Z,4.83
2018-02-01T14:36:55.880Z,6.00
2018-02-01T14:39:23.377Z,4.87
2018-02-01T14:41:50.898Z,2.80
2018-02-01T14:44:18.468Z,8.33
2018-02-01T14:46:46.033Z,4.20
2018-02-01T14:49:14.324Z,12.67
2018-02-01T14:51:42.628Z,13.20
2018-02-01T14:54:10.176Z,8.43
2018-02-01T14:56:38.448Z,7.80
2018-02-01T14:59:06.751Z,8.17
2018-02-01T15:01:34.302Z,8.10
2018-02-01T15:04:01.837Z,6.77
2018-02-01T15:06:30.353Z,10.73
2018-02-01T15:08:58.666Z,11.13
2018-02-01T15:11:26.292Z,10.03
2018-02-01T15:13:53.824Z,7.70
2018-02-01T15:16:21.496Z,11.37
2018-02-01T15:18:49.019Z,9.83
2018-02-01T15:21:16.542Z,13.40
2018-02-01T15:23:44.157Z,13.20
2018-02-01T15:26:11.691Z,11.97
2018-02-01T15:28:39.213Z,13.60
2018-02-01T15:31:06.728Z,7.20
2018-02-01T15:33:34.234Z,12.97
2018-02-01T15:36:01.790Z,8.67
2018-02-01T15:38:29.412Z,7.90
2018-02-01T15:40:56.951Z,9.43
2018-02-01T15:43:25.252Z,8.10
2018-02-01T15:45:53.538Z,11.57
2018-02-01T15:48:21.125Z,10.10
2018-02-01T15:50:48.646Z,14.17
2018-02-01T15:53:16.963Z,14.90
2018-02-01T15:55:44.471Z,14.53
2018-02-01T15:58:12.016Z,14.23
2018-02-01T16:00:39.566Z,12.43
2018-02-01T16:03:07.168Z,12.33
2018-02-01T16:05:34.691Z,13.70
2018-02-01T16:08:02.656Z,24.77
2018-02-01T16:10:30.191Z,11.10
2018-02-01T16:12:58.467Z,7.90
2018-02-01T16:15:26.705Z,9.80
2018-02-01T16:17:54.246Z,9.77
2018-02-01T16:20:21.870Z,7.43
2018-02-01T16:22:50.228Z,15.10
2018-02-01T16:25:17.792Z,10.67
2018-02-01T16:27:45.325Z,11.70
2018-02-01T16:30:12.840Z,8.90
2018-02-01T16:32:40.395Z,14.70
2018-02-01T16:35:09.419Z,14.93
2018-02-01T16:37:37.704Z,11.50
2018-02-01T16:40:05.253Z,13.60
2018-02-01T16:42:33.530Z,19.10
2018-02-01T16:45:01.824Z,18.23
2018-02-01T16:47:30.085Z,21.90
2018-02-01T16:49:57.601Z,28.47
2018-02-01T16:52:25.136Z,17.73
2018-02-01T16:54:52.660Z,14.20
2018-02-01T16:57:22.004Z,13.80
2018-02-01T16:59:49.553Z,16.43
2018-02-01T17:02:19.768Z,17.67
2018-02-01T17:04:47.290Z,28.27
2018-02-01T17:07:14.782Z,28.80
2018-02-01T17:09:42.285Z,15.37
2018-02-01T17:12:10.653Z,10.53
2018-02-01T17:14:38.920Z,26.73
2018-02-01T17:17:07.264Z,43.07
2018-02-01T17:19:34.824Z,29.60
2018-02-01T17:22:02.764Z,24.20
2018-02-01T17:24:31.021Z,20.37
2018-02-01T17:26:58.525Z,22.30
2018-02-01T17:29:26.053Z,23.30
2018-02-01T17:31:53.558Z,24.80
2018-02-01T17:34:21.095Z,20.97
2018-02-01T17:36:49.390Z,23.27
2018-02-01T17:39:17.688Z,15.00
2018-02-01T17:41:45.247Z,15.27
2018-02-01T17:44:12.777Z,16.77
2018-02-01T17:46:41.078Z,16.80
2018-02-01T17:49:08.692Z,19.77
2018-02-01T17:51:36.167Z,26.35
2018-02-01T17:54:03.665Z,25.77
2018-02-01T17:56:31.214Z,22.60
2018-02-01T17:58:59.819Z,20.63
2018-02-01T18:01:27.354Z,25.17
2018-02-01T18:03:54.879Z,21.35
2018-02-01T18:06:22.400Z,23.40
2018-02-01T18:08:49.906Z,21.02
2018-02-01T18:11:17.434Z,25.35
2018-02-01T18:13:44.952Z,28.75
2018-02-01T18:16:12.539Z,26.05
2018-02-01T18:18:40.016Z,18.83
2018-02-01T18:21:08.295Z,25.73
2018-02-01T18:23:35.890Z,38.13
2018-02-01T18:26:03.397Z,31.75
2018-02-01T18:28:30.942Z,15.27
2018-02-01T18:30:58.493Z,14.93
2018-02-01T18:33:25.998Z,22.15
2018-02-01T18:35:53.538Z,16.92
2018-02-01T18:38:21.064Z,11.55
2018-02-01T18:40:48.597Z,21.70
2018-02-01T18:43:16.889Z,13.38
2018-02-01T18:45:45.176Z,22.25
2018-02-01T18:48:12.694Z,14.32
2018-02-01T18:50:40.232Z,18.60
2018-02-01T18:53:07.742Z,15.65
2018-02-01T18:55:36.046Z,11.25
2018-02-01T18:58:04.343Z,12.88
2018-02-01T19:00:31.849Z,12.63
2018-02-01T19:02:59.375Z,21.67
2018-02-01T19:05:26.900Z,30.12
2018-02-01T19:07:55.166Z,16.58
2018-02-01T19:10:22.733Z,21.53
2018-02-01T19:12:51.061Z,17.87
2018-02-01T19:15:18.601Z,25.50
2018-02-01T19:17:46.891Z,27.37
2018-02-01T19:20:15.176Z,15.70
2018-02-01T19:22:42.691Z,26.10
2018-02-01T19:25:10.231Z,36.35
2018-02-01T19:27:37.748Z,26.33
2018-02-01T19:30:06.024Z,25.95
2018-02-01T19:32:34.317Z,30.33
2018-02-01T19:35:02.594Z,31.87
2018-02-01T19:37:30.883Z,27.30
2018-02-01T19:39:59.175Z,16.12
2018-02-01T19:42:26.678Z,22.85
2018-02-01T19:44:54.210Z,19.60
2018-02-01T19:47:21.716Z,24.23
2018-02-01T19:49:49.258Z,19.77
2018-02-01T19:52:16.762Z,19.37
2018-02-01T19:54:45.131Z,13.50
2018-02-01T19:57:12.674Z,26.23
2018-02-01T19:59:40.188Z,18.05
2018-02-01T20:02:08.472Z,17.70
2018-02-01T20:04:36.741Z,14.35
2018-02-01T20:07:05.338Z,10.60
2018-02-01T20:09:33.610Z,13.90
2018-02-01T20:12:01.915Z,23.75
2018-02-01T20:14:29.419Z,23.98
2018-02-01T20:16:56.980Z,27.95
2018-02-01T20:19:24.508Z,20.42
2018-02-01T20:21:52.074Z,36.67
2018-02-01T20:24:19.605Z,18.25
2018-02-01T20:26:47.126Z,30.10
2018-02-01T20:29:14.717Z,18.83
2018-02-01T20:31:43.016Z,16.05
2018-02-01T20:34:11.302Z,17.10
2018-02-01T20:36:39.590Z,22.92
2018-02-01T20:39:07.878Z,24.33
2018-02-01T20:41:36.161Z,19.20
2018-02-01T20:44:05.147Z,23.25
2018-02-01T20:46:33.525Z,27.00
2018-02-01T20:49:01.109Z,31.90
2018-02-01T20:51:28.668Z,15.75
2018-02-01T20:53:56.205Z,15.13
2018-02-01T20:56:25.224Z,11.88
2018-02-01T20:58:53.501Z,12.27
2018-02-01T21:01:21.793Z,6.70
2018-02-01T21:03:49.323Z,11.02
2018-02-01T21:06:16.992Z,13.82
2018-02-01T21:08:44.552Z,10.32
2018-02-01T21:11:12.069Z,10.75
2018-02-01T21:13:39.610Z,16.15
2018-02-01T21:16:07.212Z,14.40
2018-02-01T21:18:34.714Z,19.17
2018-02-01T21:21:03.728Z,19.83
2018-02-01T21:23:32.017Z,15.27
2018-02-01T21:26:00.273Z,7.18
2018-02-01T21:28:28.576Z,9.43
2018-02-01T21:30:56.969Z,12.73
2018-02-01T21:33:24.491Z,7.22
2018-02-01T21:35:52.035Z,4.40
2018-02-01T21:38:21.670Z,7.53
2018-02-01T21:40:49.202Z,8.10
2018-02-01T21:43:16.766Z,9.45
2018-02-01T21:45:44.291Z,8.18
2018-02-01T21:48:12.575Z,8.32
2018-02-01T21:50:40.827Z,5.45
2018-02-01T21:53:08.380Z,8.57
2018-02-01T21:55:35.876Z,8.60
2018-02-01T21:58:04.201Z,8.73
2018-02-01T22:00:31.712Z,18.17
2018-02-01T22:02:59.996Z,11.68
2018-02-01T22:05:28.280Z,6.07
2018-02-01T22:07:56.628Z,6.90
2018-02-01T22:10:24.129Z,10.38
2018-02-01T22:12:52.400Z,7.12
2018-02-01T22:15:20.817Z,8.18
2018-02-01T22:17:48.376Z,9.73
2018-02-01T22:20:15.961Z,10.85
2018-02-01T22:22:43.461Z,6.35
2018-02-01T22:25:10.976Z,7.40
2018-02-01T22:27:38.500Z,5.87
2018-02-01T22:30:07.467Z,9.57
2018-02-01T22:32:34.990Z,3.90
2018-02-01T22:35:02.481Z,9.10
2018-02-01T22:37:30.008Z,6.68
2018-02-01T22:39:57.566Z,6.10
2018-02-01T22:42:25.840Z,3.78
2018-02-01T22:44:54.168Z,16.08
2018-02-01T22:47:21.728Z,16.65
2018-02-01T22:49:49.248Z,13.62
2018-02-01T22:52:17.611Z,10.77
2018-02-01T22:54:45.141Z,11.20
2018-02-01T22:57:13.341Z,5.90
2018-02-01T22:59:40.836Z,7.80
2018-02-01T23:02:09.117Z,13.82
2018-02-01T23:04:37.482Z,6.85
2018-02-01T23:07:05.768Z,6.40
2018-02-01T23:09:34.017Z,5.62
2018-02-01T23:12:01.532Z,6.82
2018-02-01T23:14:30.814Z,16.25
2018-02-01T23:16:59.651Z,7.65
2018-02-01T23:19:27.153Z,7.37
2018-02-01T23:21:54.676Z,6.60
2018-02-01T23:24:22.215Z,14.30
2018-02-01T23:26:50.464Z,7.18
2018-02-01T23:29:17.969Z,4.10
2018-02-01T23:31:45.498Z,3.70
2018-02-01T23:34:13.026Z,17.80
2018-02-01T23:36:40.540Z,3.12
2018-02-01T23:39:08.863Z,7.70
2018-02-01T23:41:36.345Z,1.58
2018-02-01T23:44:03.941Z,5.07
2018-02-01T23:46:31.467Z,2.08
2018-02-01T23:48:59.084Z,3.10
2018-02-01T23:51:27.553Z,2.87
2018-02-01T23:53:55.063Z,8.80
2018-02-01T23:56:22.827Z,4.43
2018-02-01T23:58:50.339Z,3.92
